Time;durP1;ratioP1;P1;durP2;ratioP2;P2;SDS_P1;SDS_P2;PMS_P1;PMS_P2;Temp;Humidity;BMP_temperature;BMP_pressure;BME280_temperature;BME280_humidity;BME280_pressure;Samples;Min_cycle;Max_cycle;Signal;HPM_P1;HPM_P2
2023/03/02 00:01:25;;;;;;;21.58;13.32;;;;;;;0.03;100.00;-18028.00;5059238;28;20045;-81
2023/03/02 00:03:51;;;;;;;23.88;14.82;;;;;;;-0.03;100.00;-18026.47;5060886;28;20045;-80
2023/03/02 00:06:16;;;;;;;26.85;16.35;;;;;;;-0.12;100.00;-18023.97;5060920;28;20520;-80
2023/03/02 00:08:42;;;;;;;25.63;16.38;;;;;;;-0.08;100.00;-18025.22;5055505;28;20068;-80
2023/03/02 00:11:08;;;;;;;26.58;17.17;;;;;;;-0.09;100.00;-18024.94;5058928;28;20095;-80
2023/03/02 00:13:36;;;;;;;25.88;16.50;;;;;;;-0.07;100.00;-18025.38;5059541;28;20047;-81
2023/03/02 00:16:01;;;;;;;29.70;17.60;;;;;;;-0.08;100.00;-18025.09;5060592;28;20049;-81
2023/03/02 00:18:26;;;;;;;30.23;18.42;;;;;;;-0.10;100.00;-18024.69;5039604;28;20492;-80
2023/03/02 00:20:52;;;;;;;26.67;17.38;;;;;;;-0.14;100.00;-18023.44;5066208;28;20044;-80
2023/03/02 00:23:17;;;;;;;30.90;18.80;;;;;;;-0.21;100.00;-18021.50;5057959;28;20163;-86
2023/03/02 00:25:43;;;;;;;29.70;17.45;;;;;;;-0.10;100.00;-18024.53;5060528;28;20384;-80
2023/03/02 00:28:08;;;;;;;33.92;17.70;;;;;;;-0.10;100.00;-18024.69;5063780;28;20064;-80
2023/03/02 00:30:34;;;;;;;34.22;20.20;;;;;;;-0.05;100.00;-18025.94;5059437;28;20036;-82
2023/03/02 00:32:59;;;;;;;34.38;19.45;;;;;;;-0.09;100.00;-18024.94;5062724;28;22057;-80
2023/03/02 00:35:25;;;;;;;38.25;21.50;;;;;;;-0.16;100.00;-18023.00;5059076;28;20045;-80
2023/03/02 00:37:51;;;;;;;35.67;21.60;;;;;;;-0.16;100.00;-18022.88;5058931;28;20433;-80
2023/03/02 00:40:17;;;;;;;38.15;22.25;;;;;;;-0.15;100.00;-18023.28;5055736;28;20095;-81
2023/03/02 00:42:42;;;;;;;37.75;22.55;;;;;;;-0.12;100.00;-18024.13;5061711;28;20037;-82
2023/03/02 00:45:08;;;;;;;43.45;24.98;;;;;;;-0.17;100.00;-18022.59;5042866;28;20711;-81
2023/03/02 00:47:34;;;;;;;41.42;23.67;;;;;;;-0.12;100.00;-18023.97;5059433;28;20484;-80
2023/03/02 00:50:00;;;;;;;39.88;22.27;;;;;;;-0.04;100.00;-18026.19;5066508;28;20096;-80
2023/03/02 00:52:27;;;;;;;43.95;25.55;;;;;;;-0.13;100.00;-18023.72;5059656;28;20431;-81
2023/03/02 00:54:53;;;;;;;46.92;26.48;;;;;;;-0.04;100.00;-18026.19;5059933;28;20060;-81
2023/03/02 00:57:18;;;;;;;42.40;26.10;;;;;;;-0.06;100.00;-18025.78;5060285;28;20037;-81
2023/03/02 00:59:43;;;;;;;44.85;24.48;;;;;;;-0.07;100.00;-18025.38;5053372;28;20033;-81
2023/03/02 01:02:09;;;;;;;48.47;27.67;;;;;;;-0.15;100.00;-18023.28;5061635;28;20044;-82
2023/03/02 01:04:41;;;;;;;46.40;23.92;;;;;;;-0.08;100.00;-18025.09;5041542;28;20847;-81
2023/03/02 01:07:12;;;;;;;48.67;27.08;;;;;;;-0.08;100.00;-18025.09;5062642;28;20033;-81
2023/03/02 01:09:39;;;;;;;49.10;26.80;;;;;;;-0.06;100.00;-18025.66;5061446;28;20036;-80
2023/03/02 01:12:08;;;;;;;51.38;28.60;;;;;;;-0.08;100.00;-18025.22;5040394;28;20090;-81
2023/03/02 01:14:35;;;;;;;62.70;32.55;;;;;;;-0.11;100.00;-18024.25;5057244;28;20581;-78
2023/03/02 01:17:01;;;;;;;54.35;30.70;;;;;;;-0.08;100.00;-18025.09;5060810;28;20048;-81
2023/03/02 01:19:26;;;;;;;52.05;29.77;;;;;;;-0.08;100.00;-18025.22;5059236;28;20568;-81
2023/03/02 01:21:51;;;;;;;58.42;31.92;;;;;;;-0.12;100.00;-18024.13;5057319;28;20040;-81
2023/03/02 01:24:17;;;;;;;64.07;32.88;;;;;;;-0.13;100.00;-18023.72;5054573;28;20037;-81
2023/03/02 01:26:42;;;;;;;60.47;32.47;;;;;;;-0.10;100.00;-18024.69;5053399;28;20083;-79
2023/03/02 01:29:08;;;;;;;65.80;33.72;;;;;;;-0.17;100.00;-18022.75;5055747;28;20750;-81
2023/03/02 01:31:33;;;;;;;63.50;35.17;;;;;;;-0.29;100.00;-18019.56;5058633;28;20079;-81
2023/03/02 01:33:58;;;;;;;63.92;33.05;;;;;;;-0.29;100.00;-18019.41;5040138;28;20044;-78
2023/03/02 01:36:24;;;;;;;71.20;36.40;;;;;;;-0.31;100.00;-18018.84;5058202;28;20041;-82
2023/03/02 01:38:49;;;;;;;66.38;31.50;;;;;;;-0.27;100.00;-18020.09;5057297;28;20037;-81
2023/03/02 01:41:15;;;;;;;60.03;30.92;;;;;;;-0.25;100.00;-18020.66;5058985;28;20083;-81
2023/03/02 01:43:41;;;;;;;70.80;36.40;;;;;;;-0.25;100.00;-18020.66;5056628;28;20507;-81
2023/03/02 01:46:13;;;;;;;68.70;31.95;;;;;;;-0.25;100.00;-18020.53;5055039;28;20036;-82
2023/03/02 01:48:56;;;;;;;76.10;38.80;;;;;;;-0.25;100.00;-18020.66;5058071;28;20128;-81
2023/03/02 01:51:25;;;;;;;76.25;38.53;;;;;;;-0.32;100.00;-18018.56;5056790;28;20032;-82
2023/03/02 01:53:55;;;;;;;69.78;34.95;;;;;;;-0.26;100.00;-18020.25;5055614;28;20105;-81
2023/03/02 01:56:28;;;;;;;71.25;36.17;;;;;;;-0.34;100.00;-18018.03;5053711;28;20052;-80
2023/03/02 01:59:00;;;;;;;66.38;32.50;;;;;;;-0.31;100.00;-18018.84;5048902;28;22104;-79
2023/03/02 02:01:27;;;;;;;75.57;38.03;;;;;;;-0.33;100.00;-18018.31;5056460;28;20452;-81
2023/03/02 02:03:53;;;;;;;68.35;33.65;;;;;;;-0.37;100.00;-18017.34;5057665;28;20641;-82
2023/03/02 02:06:36;;;;;;;71.78;36.42;;;;;;;-0.39;100.00;-18016.78;5057364;28;20110;-82
2023/03/02 02:09:03;;;;;;;70.03;32.72;;;;;;;-0.41;100.00;-18016.09;5059521;28;20411;-82
2023/03/02 02:11:29;;;;;;;77.15;35.45;;;;;;;-0.51;100.00;-18013.44;5053749;28;20130;-80
2023/03/02 02:13:58;;;;;;;73.32;38.17;;;;;;;-0.53;100.00;-18012.91;5057560;28;20056;-79
2023/03/02 02:16:25;;;;;;;70.45;36.20;;;;;;;-0.57;100.00;-18011.78;5058464;28;20032;-82
2023/03/02 02:18:50;;;;;;;77.57;38.47;;;;;;;-0.56;100.00;-18012.06;5057988;28;20086;-82
2023/03/02 02:21:18;;;;;;;84.82;41.78;;;;;;;-0.60;100.00;-18011.09;5056870;28;20044;-81
2023/03/02 02:24:02;;;;;;;84.22;41.80;;;;;;;-0.64;100.00;-18010.00;5058570;28;20155;-83
2023/03/02 02:26:30;;;;;;;85.07;42.70;;;;;;;-0.65;100.00;-18009.72;5063381;28;20032;-83
2023/03/02 02:29:12;;;;;;;87.47;44.38;;;;;;;-0.64;100.00;-18009.84;5056933;28;20056;-80
2023/03/02 02:31:47;;;;;;;85.25;42.20;;;;;;;-0.62;100.00;-18010.53;5053507;28;20041;-79
2023/03/02 02:34:21;;;;;;;93.85;45.67;;;;;;;-0.65;100.00;-18009.72;5058220;28;20040;-82
2023/03/02 02:36:48;;;;;;;91.80;44.65;;;;;;;-0.64;100.00;-18009.84;5053752;28;20049;-79
2023/03/02 02:39:24;;;;;;;95.28;43.13;;;;;;;-0.65;100.00;-18009.56;5062055;28;20190;-82
2023/03/02 02:41:54;;;;;;;98.75;47.33;;;;;;;-0.63;100.00;-18010.13;5053999;28;20037;-81
2023/03/02 02:44:19;;;;;;;98.50;48.55;;;;;;;-0.69;100.00;-18008.75;5053880;28;20037;-80
2023/03/02 02:46:45;;;;;;;105.03;46.80;;;;;;;-0.68;100.00;-18008.88;5052369;28;20045;-81
2023/03/02 02:49:35;;;;;;;102.30;48.10;;;;;;;-0.69;100.00;-18008.59;5059013;28;22691;-83
2023/03/02 02:52:02;;;;;;;105.30;49.08;;;;;;;-0.73;100.00;-18007.63;5047805;28;20052;-82
2023/03/02 02:54:30;;;;;;;112.80;50.83;;;;;;;-0.74;100.00;-18007.22;5061013;28;20691;-82
2023/03/02 02:56:58;;;;;;;107.20;48.55;;;;;;;-0.74;100.00;-18007.34;5059980;28;20039;-79
2023/03/02 02:59:28;;;;;;;110.70;46.92;;;;;;;-0.78;100.00;-18006.25;5058040;28;20048;-81
2023/03/02 03:01:55;;;;;;;107.35;47.50;;;;;;;-0.78;100.00;-18006.09;5062327;28;20072;-81
2023/03/02 03:04:25;;;;;;;109.28;46.30;;;;;;;-0.79;100.00;-18005.97;5058908;28;20072;-83
2023/03/02 03:06:52;;;;;;;114.03;51.13;;;;;;;-0.83;100.00;-18004.84;5058128;28;20037;-82
2023/03/02 03:09:17;;;;;;;114.38;50.08;;;;;;;-0.81;100.00;-18005.41;5042511;28;20033;-83
2023/03/02 03:11:47;;;;;;;117.63;49.35;;;;;;;-0.77;100.00;-18006.38;5052819;28;20128;-82
2023/03/02 03:14:16;;;;;;;124.30;52.78;;;;;;;-0.78;100.00;-18006.25;5063088;28;20060;-83
2023/03/02 03:16:43;;;;;;;119.32;53.13;;;;;;;-0.79;100.00;-18005.81;5058026;28;20057;-80
2023/03/02 03:19:17;;;;;;;127.82;53.05;;;;;;;-0.76;100.00;-18006.78;5055932;28;20041;-83
2023/03/02 03:21:43;;;;;;;109.68;44.72;;;;;;;-0.75;100.00;-18006.94;5059661;28;20499;-81
2023/03/02 03:24:11;;;;;;;120.43;52.15;;;;;;;-0.75;100.00;-18007.06;5046814;28;20128;-81
2023/03/02 03:26:37;;;;;;;123.55;54.17;;;;;;;-0.77;100.00;-18006.38;5042981;28;20491;-82
2023/03/02 03:29:03;;;;;;;120.65;49.30;;;;;;;-0.73;100.00;-18007.63;5064636;28;20119;-82
2023/03/02 03:31:28;;;;;;;120.25;53.83;;;;;;;-0.78;100.00;-18006.09;5062940;28;20036;-82
2023/03/02 03:33:55;;;;;;;123.03;52.10;;;;;;;-0.78;100.00;-18006.09;5064232;28;20047;-82
2023/03/02 03:36:21;;;;;;;125.45;53.70;;;;;;;-0.80;100.00;-18005.69;5066418;28;20044;-81
2023/03/02 03:38:47;;;;;;;127.97;54.15;;;;;;;-0.74;100.00;-18007.34;5060331;28;20404;-82
2023/03/02 03:41:14;;;;;;;124.63;52.50;;;;;;;-0.74;100.00;-18007.34;5061840;28;20066;-82
2023/03/02 03:43:39;;;;;;;121.68;53.95;;;;;;;-0.73;100.00;-18007.63;5068335;28;20761;-82
2023/03/02 03:46:04;;;;;;;123.28;54.40;;;;;;;-0.79;100.00;-18005.81;5066607;28;20037;-82
2023/03/02 03:48:30;;;;;;;120.55;52.17;;;;;;;-0.81;100.00;-18005.41;5058154;28;20033;-82
2023/03/02 03:50:58;;;;;;;126.40;55.05;;;;;;;-0.79;100.00;-18005.97;5062306;28;20041;-82
2023/03/02 03:53:24;;;;;;;110.18;51.10;;;;;;;-0.85;100.00;-18004.31;5038130;28;20548;-82
2023/03/02 03:55:49;;;;;;;115.90;52.00;;;;;;;-0.94;100.00;-18001.81;5064826;28;20036;-82
2023/03/02 03:58:15;;;;;;;118.78;48.25;;;;;;;-0.98;100.00;-18000.69;5043935;28;20045;-82
2023/03/02 04:00:40;;;;;;;113.97;50.97;;;;;;;-1.02;100.00;-17999.59;5064508;28;20135;-83
2023/03/02 04:03:05;;;;;;;118.78;53.05;;;;;;;-0.99;100.00;-18000.56;5049274;28;20105;-83
2023/03/02 04:05:31;;;;;;;121.05;49.88;;;;;;;-1.02;100.00;-17999.72;5055844;28;20041;-81
2023/03/02 04:07:58;;;;;;;114.72;51.10;;;;;;;-1.01;100.00;-18000.00;5066186;28;20067;-82
2023/03/02 04:10:23;;;;;;;115.38;51.53;;;;;;;-1.04;100.00;-17999.16;5045221;28;20107;-82
2023/03/02 04:12:48;;;;;;;117.55;50.20;;;;;;;-1.10;100.00;-17997.50;5061978;28;20049;-81
2023/03/02 04:15:15;;;;;;;105.82;47.72;;;;;;;-1.14;100.00;-17996.53;5065091;28;20075;-83
2023/03/02 04:17:43;;;;;;;118.53;50.85;;;;;;;-1.13;100.00;-17996.81;5042493;28;20469;-82
2023/03/02 04:20:15;;;;;;;115.47;49.47;;;;;;;-1.14;100.00;-17996.53;5064199;28;20044;-82
2023/03/02 04:22:41;;;;;;;105.53;44.65;;;;;;;-1.20;100.00;-17994.88;5058619;28;20039;-83
2023/03/02 04:25:07;;;;;;;102.10;48.22;;;;;;;-1.23;100.00;-17994.03;5060346;28;20055;-82
2023/03/02 04:27:32;;;;;;;105.38;48.90;;;;;;;-1.27;100.00;-17992.94;5049840;28;20032;-82
2023/03/02 04:29:58;;;;;;;103.78;47.95;;;;;;;-1.33;100.00;-17991.13;5049695;28;20033;-81
2023/03/02 04:32:23;;;;;;;98.90;46.92;;;;;;;-1.36;100.00;-17990.44;5045008;28;20499;-82
2023/03/02 04:34:48;;;;;;;99.55;42.40;;;;;;;-1.36;100.00;-17990.56;5062354;28;20032;-82
2023/03/02 04:37:14;;;;;;;107.78;46.75;;;;;;;-1.38;100.00;-17989.88;5060681;28;20044;-82
2023/03/02 04:39:40;;;;;;;108.82;46.35;;;;;;;-1.40;100.00;-17989.47;5068463;28;20045;-82
2023/03/02 04:42:05;;;;;;;107.30;47.05;;;;;;;-1.43;100.00;-17988.50;5069737;28;20412;-82
2023/03/02 04:44:30;;;;;;;100.15;45.05;;;;;;;-1.42;100.00;-17988.91;5058195;28;20045;-81
2023/03/02 04:46:56;;;;;;;102.07;45.13;;;;;;;-1.45;100.00;-17987.94;5050331;28;20041;-82
2023/03/02 04:49:21;;;;;;;99.40;44.53;;;;;;;-1.51;100.00;-17986.41;5059248;28;20439;-83
2023/03/02 04:51:48;;;;;;;98.03;44.85;;;;;;;-1.56;100.00;-17984.88;5062452;28;20037;-83
2023/03/02 04:54:15;;;;;;;94.63;43.63;;;;;;;-1.62;100.00;-17983.50;5058123;28;20233;-83
2023/03/02 04:56:40;;;;;;;99.13;45.05;;;;;;;-1.62;100.00;-17983.38;5069838;28;20063;-82
2023/03/02 04:59:05;;;;;;;97.70;42.65;;;;;;;-1.64;100.00;-17982.94;5060064;28;20456;-81
2023/03/02 05:01:31;;;;;;;93.95;40.00;;;;;;;-1.65;100.00;-17982.66;5067758;28;20315;-81
2023/03/02 05:03:57;;;;;;;97.75;44.75;;;;;;;-1.63;100.00;-17983.22;5062689;28;20055;-81
2023/03/02 05:06:25;;;;;;;89.07;38.90;;;;;;;-1.62;100.00;-17983.50;5068777;28;20041;-81
2023/03/02 05:08:52;;;;;;;97.25;45.67;;;;;;;-1.66;100.00;-17982.25;5056123;28;20044;-81
2023/03/02 05:11:21;;;;;;;97.28;43.10;;;;;;;-1.66;100.00;-17982.41;5065988;28;20037;-82
2023/03/02 05:13:48;;;;;;;87.88;40.00;;;;;;;-1.69;100.00;-17981.44;5044519;28;20041;-82
2023/03/02 05:16:14;;;;;;;95.05;41.40;;;;;;;-1.73;100.00;-17980.44;5070041;28;20036;-82
2023/03/02 05:18:39;;;;;;;95.00;44.15;;;;;;;-1.68;100.00;-17981.69;5065812;28;20120;-82
2023/03/02 05:21:05;;;;;;;90.07;39.22;;;;;;;-1.67;100.00;-17981.97;5047520;28;20032;-81
2023/03/02 05:23:30;;;;;;;91.35;42.08;;;;;;;-1.66;100.00;-17982.41;5049041;28;20044;-84
2023/03/02 05:25:56;;;;;;;94.35;41.42;;;;;;;-1.68;100.00;-17981.69;5065439;28;20037;-83
2023/03/02 05:28:23;;;;;;;97.03;44.35;;;;;;;-1.74;100.00;-17980.16;5056232;28;20041;-82
2023/03/02 05:30:49;;;;;;;90.97;36.92;;;;;;;-1.64;100.00;-17982.94;5041797;28;20072;-84
2023/03/02 05:33:15;;;;;;;93.60;38.53;;;;;;;-1.66;100.00;-17982.25;5064301;28;20063;-84
2023/03/02 05:35:41;;;;;;;94.72;41.78;;;;;;;-1.67;100.00;-17982.13;5050640;28;20048;-85
2023/03/02 05:38:07;;;;;;;81.88;30.23;;;;;;;-1.69;100.00;-17981.44;5059178;28;20062;-84
2023/03/02 05:40:32;;;;;;;96.93;44.25;;;;;;;-1.77;100.00;-17979.19;5068273;28;20059;-83
2023/03/02 05:42:58;;;;;;;94.97;42.22;;;;;;;-1.76;100.00;-17979.63;5069428;28;20052;-83
2023/03/02 05:45:29;;;;;;;92.72;40.33;;;;;;;-1.75;100.00;-17979.91;5060410;28;20051;-82
2023/03/02 05:47:55;;;;;;;93.68;43.33;;;;;;;-1.83;100.00;-17977.69;5057492;28;20448;-82
2023/03/02 05:50:20;;;;;;;103.07;46.30;;;;;;;-1.83;100.00;-17977.69;5061978;28;20040;-84
2023/03/02 05:52:46;;;;;;;102.68;45.90;;;;;;;-1.81;100.00;-17978.22;5053773;28;20060;-83
2023/03/02 05:55:13;;;;;;;89.57;36.50;;;;;;;-1.81;100.00;-17978.22;5061482;28;20492;-83
2023/03/02 05:57:38;;;;;;;103.60;43.88;;;;;;;-1.82;100.00;-17977.94;5061115;28;20039;-83
2023/03/02 06:00:04;;;;;;;98.18;42.70;;;;;;;-1.78;100.00;-17978.91;5068622;28;20044;-83
2023/03/02 06:02:31;;;;;;;104.90;38.35;;;;;;;-1.77;100.00;-17979.34;5051000;28;20119;-83
2023/03/02 06:04:56;;;;;;;106.40;47.25;;;;;;;-1.77;100.00;-17979.34;5053669;23;20088;-78
2023/03/02 06:07:22;;;;;;;96.32;36.35;;;;;;;-1.75;100.00;-17979.91;5067229;28;20068;-77
2023/03/02 06:09:48;;;;;;;97.18;39.35;;;;;;;-1.77;100.00;-17979.19;5059173;28;20060;-77
2023/03/02 06:12:13;;;;;;;102.45;42.20;;;;;;;-1.76;100.00;-17979.47;5053194;28;20502;-77
2023/03/02 06:14:39;;;;;;;96.03;40.00;;;;;;;-1.80;100.00;-17978.38;5057729;28;20059;-77
2023/03/02 06:17:04;;;;;;;102.05;44.05;;;;;;;-1.80;100.00;-17978.38;5037737;28;20709;-77
2023/03/02 06:19:30;;;;;;;100.32;43.78;;;;;;;-1.82;100.00;-17978.09;5056823;28;20135;-77
2023/03/02 06:21:55;;;;;;;99.82;42.78;;;;;;;-1.81;100.00;-17978.22;5057901;28;20044;-78
2023/03/02 06:24:21;;;;;;;99.28;40.58;;;;;;;-1.85;100.00;-17977.13;5059699;28;20415;-77
2023/03/02 06:26:46;;;;;;;97.43;40.15;;;;;;;-1.81;100.00;-17978.22;5057247;28;20040;-78
2023/03/02 06:29:11;;;;;;;101.03;38.60;;;;;;;-1.85;100.00;-17977.25;5062851;28;20067;-77
2023/03/02 06:31:37;;;;;;;103.22;40.03;;;;;;;-1.82;100.00;-17977.94;5063892;28;20592;-77
2023/03/02 06:34:02;;;;;;;88.68;35.55;;;;;;;-1.84;100.00;-17977.41;5066259;28;20052;-78
2023/03/02 06:36:28;;;;;;;102.97;41.65;;;;;;;-1.82;100.00;-17977.94;5056204;28;20036;-77
2023/03/02 06:38:53;;;;;;;105.78;45.00;;;;;;;-1.88;100.00;-17976.28;5057716;28;20484;-77
2023/03/02 06:41:19;;;;;;;104.30;46.63;;;;;;;-1.87;100.00;-17976.56;5062390;28;20072;-77
2023/03/02 06:43:45;;;;;;;105.88;42.65;;;;;;;-1.85;100.00;-17977.13;5059525;28;20053;-78
2023/03/02 06:46:11;;;;;;;103.75;46.92;;;;;;;-1.98;100.00;-17973.66;5061877;28;20064;-78
2023/03/02 06:48:39;;;;;;;117.00;46.63;;;;;;;-1.93;100.00;-17975.03;5051447;28;20053;-77
2023/03/02 06:51:06;;;;;;;108.60;46.33;;;;;;;-1.91;100.00;-17975.47;5059859;28;20090;-77
2023/03/02 06:53:31;;;;;;;103.72;42.97;;;;;;;-1.90;100.00;-17975.72;5046332;28;20055;-76
2023/03/02 06:55:57;;;;;;;117.72;49.47;;;;;;;-1.85;100.00;-17977.13;5061862;28;20406;-78
2023/03/02 06:58:22;;;;;;;108.88;44.55;;;;;;;-1.78;100.00;-17979.06;5039582;28;20040;-77
2023/03/02 07:00:47;;;;;;;107.30;49.13;;;;;;;-1.74;100.00;-17980.16;5061507;28;20049;-78
2023/03/02 07:03:13;;;;;;;110.00;47.67;;;;;;;-1.66;100.00;-17982.41;5060334;28;20037;-77
2023/03/02 07:05:38;;;;;;;106.95;45.50;;;;;;;-1.55;100.00;-17985.16;5063022;28;20045;-77
2023/03/02 07:08:04;;;;;;;112.15;48.88;;;;;;;-1.48;100.00;-17987.25;5049954;28;20032;-77
2023/03/02 07:10:29;;;;;;;119.55;50.97;;;;;;;-1.45;100.00;-17987.94;5065304;28;20044;-77
2023/03/02 07:12:55;;;;;;;119.93;51.33;;;;;;;-1.45;100.00;-17988.06;5068484;28;20048;-76
2023/03/02 07:15:20;;;;;;;121.85;53.60;;;;;;;-1.41;100.00;-17989.06;5068086;28;20036;-79
2023/03/02 07:17:46;;;;;;;117.72;49.25;;;;;;;-1.37;100.00;-17990.16;5060898;28;20045;-77
2023/03/02 07:20:14;;;;;;;117.30;52.55;;;;;;;-1.35;100.00;-17990.72;5059893;28;20073;-79
2023/03/02 07:22:41;;;;;;;118.43;49.75;;;;;;;-1.28;100.00;-17992.66;5072616;28;21014;-77
2023/03/02 07:25:07;;;;;;;98.00;42.35;;;;;;;-1.25;100.00;-17993.34;5076218;28;20041;-76
2023/03/02 07:27:32;;;;;;;112.13;44.67;;;;;;;-1.21;100.00;-17994.47;5061173;28;20063;-76
2023/03/02 07:29:58;;;;;;;113.78;50.25;;;;;;;-1.18;100.00;-17995.28;5053891;28;20550;-75
2023/03/02 07:32:23;;;;;;;119.30;52.53;;;;;;;-1.16;100.00;-17995.97;5048813;28;20089;-77
2023/03/02 07:34:49;;;;;;;113.57;51.42;;;;;;;-1.06;100.00;-17998.63;5065855;28;20043;-77
2023/03/02 07:37:14;;;;;;;109.45;47.78;;;;;;;-1.03;100.00;-17999.31;5067609;28;20040;-76
2023/03/02 07:39:39;;;;;;;115.55;49.28;;;;;;;-0.95;100.00;-18001.66;5047815;28;21637;-76
2023/03/02 07:42:07;;;;;;;112.07;50.20;;;;;;;-0.92;100.00;-18002.38;5062847;28;20048;-76
2023/03/02 07:44:33;;;;;;;114.63;48.13;;;;;;;-0.91;100.00;-18002.78;5066665;28;20047;-76
2023/03/02 07:46:59;;;;;;;101.15;44.85;;;;;;;-0.81;100.00;-18005.41;5058554;28;20032;-79
2023/03/02 07:49:24;;;;;;;108.72;47.05;;;;;;;-0.79;100.00;-18005.97;5067378;28;20033;-76
2023/03/02 07:51:49;;;;;;;104.78;45.97;;;;;;;-0.72;100.00;-18007.91;5078732;28;20036;-76
2023/03/02 07:54:15;;;;;;;101.93;39.83;;;;;;;-0.65;100.00;-18009.72;5050711;28;20043;-76
2023/03/02 07:56:40;;;;;;;102.65;48.38;;;;;;;-0.65;100.00;-18009.56;5066775;28;20043;-76
2023/03/02 07:59:05;;;;;;;114.35;48.95;;;;;;;-0.61;100.00;-18010.81;5052853;28;20036;-76
2023/03/02 08:01:31;;;;;;;100.78;43.65;;;;;;;-0.57;100.00;-18011.78;5060719;28;20040;-76
2023/03/02 08:03:56;;;;;;;95.68;44.22;;;;;;;-0.54;100.00;-18012.63;5056815;28;20074;-78
2023/03/02 08:06:22;;;;;;;98.30;45.35;;;;;;;-0.50;100.00;-18013.72;5060871;28;20119;-76
2023/03/02 08:08:48;;;;;;;100.75;46.78;;;;;;;-0.49;100.00;-18014.16;5059953;28;20040;-76
2023/03/02 08:11:16;;;;;;;103.32;47.13;;;;;;;-0.42;100.00;-18015.94;5064562;28;20064;-76
2023/03/02 08:13:42;;;;;;;96.40;44.95;;;;;;;-0.40;100.00;-18016.50;5064092;28;20037;-79
2023/03/02 08:16:10;;;;;;;101.97;46.30;;;;;;;-0.30;100.00;-18019.13;5054662;28;20040;-76
2023/03/02 08:18:36;;;;;;;100.78;46.33;;;;;;;-0.22;100.00;-18021.22;5061330;28;20036;-75
2023/03/02 08:21:03;;;;;;;105.75;46.97;;;;;;;-0.21;100.00;-18021.63;5065371;28;20401;-76
2023/03/02 08:23:28;;;;;;;100.93;46.92;;;;;;;-0.14;100.00;-18023.44;5048532;28;20037;-76
2023/03/02 08:25:54;;;;;;;88.22;36.67;;;;;;;-0.14;100.00;-18023.44;5063941;28;20044;-76
2023/03/02 08:28:21;;;;;;;92.80;40.08;;;;;;;-0.06;100.00;-18025.66;5065579;28;20422;-77
2023/03/02 08:30:58;;;;;;;93.15;39.47;;;;;;;-0.02;100.00;-18026.91;5062013;28;20714;-77
2023/03/02 08:33:26;;;;;;;90.65;41.10;;;;;;;0.00;100.00;-18027.31;5041904;28;20614;-77
2023/03/02 08:35:56;;;;;;;81.68;38.15;;;;;;;0.09;100.00;-18029.66;5060139;28;20416;-77
2023/03/02 08:38:22;;;;;;;85.78;39.30;;;;;;;0.19;100.00;-18032.56;5065711;28;20040;-77
2023/03/02 08:40:48;;;;;;;89.07;44.33;;;;;;;0.26;100.00;-18034.38;5065975;28;20210;-77
2023/03/02 08:43:13;;;;;;;89.15;42.95;;;;;;;0.33;100.00;-18036.19;5062840;28;20730;-77
2023/03/02 08:45:38;;;;;;;79.60;37.88;;;;;;;0.39;100.00;-18037.84;5061251;28;20040;-77
2023/03/02 08:48:04;;;;;;;74.20;35.95;;;;;;;0.41;100.00;-18038.41;5065980;28;20063;-77
2023/03/02 08:50:29;;;;;;;72.80;38.58;;;;;;;0.47;100.00;-18040.06;5064225;28;20036;-77
2023/03/02 08:52:55;;;;;;;72.28;37.58;;;;;;;0.53;100.00;-18041.59;5064280;28;20660;-77
2023/03/02 08:55:20;;;;;;;64.75;36.08;;;;;;;0.55;100.00;-18042.13;5065222;28;20115;-77
2023/03/02 08:57:46;;;;;;;72.32;35.67;;;;;;;0.67;100.00;-18045.47;5060525;28;20057;-78
2023/03/02 09:00:13;;;;;;;69.93;36.10;;;;;;;0.74;100.00;-18047.41;5060813;28;21131;-80
2023/03/02 09:02:39;;;;;;;66.50;39.03;;;;;;;0.72;100.00;-18046.84;5062449;28;20083;-77
2023/03/02 09:05:05;;;;;;;63.42;35.45;;;;;;;0.84;100.00;-18050.03;5065238;28;20041;-77
2023/03/02 09:07:30;;;;;;;63.20;30.88;;;;;;;0.96;100.00;-18053.34;5065131;28;20042;-77
2023/03/02 09:09:56;;;;;;;60.50;33.22;;;;;;;1.01;100.00;-18054.75;5055175;28;20203;-77
2023/03/02 09:12:21;;;;;;;65.53;35.53;;;;;;;1.16;100.00;-18058.63;5061298;28;20414;-77
2023/03/02 09:14:47;;;;;;;57.10;31.50;;;;;;;1.31;100.00;-18062.75;5066420;28;20036;-77
2023/03/02 09:17:14;;;;;;;52.67;30.70;;;;;;;1.40;100.00;-18065.13;5059204;28;20049;-77
2023/03/02 09:19:40;;;;;;;51.58;28.10;;;;;;;1.49;100.00;-18067.75;5059651;28;20070;-77
2023/03/02 09:22:07;;;;;;;52.53;28.90;;;;;;;1.67;100.00;-18072.44;5054830;28;20055;-78
2023/03/02 09:24:34;;;;;;;45.10;27.00;;;;;;;1.80;100.00;-18076.19;5067864;28;20533;-77
2023/03/02 09:27:00;;;;;;;43.85;25.70;;;;;;;1.96;100.00;-18080.34;5062845;28;20487;-77
2023/03/02 09:29:25;;;;;;;43.08;24.60;;;;;;;2.13;100.00;-18084.91;5063798;28;20052;-78
2023/03/02 09:31:51;;;;;;;38.65;22.95;;;;;;;2.22;100.00;-18087.41;5059450;28;20116;-78
2023/03/02 09:34:16;;;;;;;36.65;20.70;;;;;;;2.30;100.00;-18089.59;5065664;28;20033;-77
2023/03/02 09:36:41;;;;;;;39.63;21.92;;;;;;;2.45;100.00;-18093.75;5060598;28;20083;-78
2023/03/02 09:39:08;;;;;;;33.35;21.23;;;;;;;2.61;100.00;-18097.91;5061689;28;20045;-77
2023/03/02 09:41:54;;;;;;;34.67;20.40;;;;;;;2.67;100.00;-18099.69;5061612;28;20113;-77
2023/03/02 09:44:34;;;;;;;37.38;21.23;;;;;;;2.78;100.00;-18102.47;5060918;28;20045;-77
2023/03/02 09:47:28;;;;;;;39.00;24.35;;;;;;;2.84;100.00;-18104.25;5055840;28;20075;-76
2023/03/02 09:50:09;;;;;;;37.60;23.15;;;;;;;2.69;100.00;-18100.13;5017586;28;20128;-78
2023/03/02 09:52:37;;;;;;;36.72;21.77;;;;;;;2.81;100.00;-18103.31;5059860;28;20020;-77
2023/03/02 09:55:14;;;;;;;34.20;21.57;;;;;;;2.83;100.00;-18104.00;5063621;28;20032;-77
2023/03/02 09:57:40;;;;;;;35.28;19.38;;;;;;;2.94;100.00;-18107.03;5061171;28;20084;-77
2023/03/02 10:00:12;;;;;;;31.90;20.55;;;;;;;3.06;100.00;-18110.22;5061564;28;20029;-77
2023/03/02 10:02:55;;;;;;;32.53;19.05;;;;;;;3.12;100.00;-18111.88;5063880;28;20041;-77
2023/03/02 10:05:33;;;;;;;32.65;19.98;;;;;;;3.32;100.00;-18117.25;5058634;28;20044;-77
2023/03/02 10:07:59;;;;;;;32.05;19.75;;;;;;;3.32;100.00;-18117.25;5057188;28;20084;-77
2023/03/02 10:10:57;;;;;;;33.10;19.85;;;;;;;3.35;100.00;-18118.09;5060147;28;20044;-77
2023/03/02 10:13:29;;;;;;;30.25;19.23;;;;;;;3.52;100.00;-18122.50;5041616;28;20490;-77
2023/03/02 10:16:04;;;;;;;27.25;17.55;;;;;;;3.55;100.00;-18123.47;5060203;28;20376;-76
2023/03/02 10:18:40;;;;;;;28.65;19.73;;;;;;;3.58;100.00;-18124.16;5064820;28;20044;-76
2023/03/02 10:21:20;;;;;;;29.73;18.58;;;;;;;3.63;100.00;-18125.56;5041648;28;20499;-77
2023/03/02 10:23:45;;;;;;;25.95;15.88;;;;;;;3.71;100.00;-18127.63;5059845;28;20048;-77
2023/03/02 10:26:13;;;;;;;25.88;17.10;;;;;;;3.82;100.00;-18130.66;5065025;28;20406;-76
2023/03/02 10:28:48;;;;;;;28.90;18.67;;;;;;;3.96;100.00;-18134.41;5063358;28;20105;-77
2023/03/02 10:31:26;;;;;;;29.20;18.35;;;;;;;4.27;100.00;-18142.97;5056728;28;20120;-77
2023/03/02 10:33:52;;;;;;;27.27;17.50;;;;;;;4.38;100.00;-18145.88;5062380;28;20135;-80
2023/03/02 10:36:36;;;;;;;24.98;17.17;;;;;;;4.52;100.00;-18149.72;5061458;28;20116;-77
2023/03/02 10:39:11;;;;;;;27.60;17.90;;;;;;;4.53;100.00;-18150.00;5063166;28;20041;-77
2023/03/02 10:41:41;;;;;;;27.63;17.88;;;;;;;4.61;100.00;-18152.06;5044181;28;20098;-77
2023/03/02 10:44:18;;;;;;;34.03;20.30;;;;;;;4.54;100.00;-18150.13;5061604;28;20118;-77
2023/03/02 10:46:45;;;;;;;29.38;16.70;;;;;;;4.66;100.00;-18153.47;5058355;28;20100;-77
2023/03/02 10:49:31;;;;;;;27.20;17.75;;;;;;;4.80;100.00;-18157.03;5059429;28;20044;-77
2023/03/02 10:52:11;;;;;;;26.48;16.02;;;;;;;4.73;100.00;-18155.38;5057999;28;20035;-77
2023/03/02 10:54:36;;;;;;;24.77;14.95;;;;;;;4.78;100.00;-18156.50;5060633;28;20106;-78
2023/03/02 10:57:04;;;;;;;26.85;16.65;;;;;;;4.89;100.00;-18159.66;5060896;28;20036;-77
2023/03/02 10:59:46;;;;;;;26.58;16.58;;;;;;;4.91;100.00;-18160.09;5043131;28;20033;-78
2023/03/02 11:02:21;;;;;;;26.40;16.70;;;;;;;5.11;100.00;-18165.47;5044566;28;20098;-78